sensor_id;sensor_type;location;lat;lon;timestamp;P1;durP1;ratioP1;P2;durP2;ratioP2
33786;SDS011;29742;51.540;9.358;2023-07-16T00:01:21;1.02;;;0.90;;
33786;SDS011;29742;51.540;9.358;2023-07-16T00:06:21;0.93;;;0.80;;
33786;SDS011;29742;51.540;9.358;2023-07-16T00:11:22;1.10;;;0.90;;
33786;SDS011;29742;51.540;9.358;2023-07-16T00:16:22;1.90;;;0.80;;
33786;SDS011;29742;51.540;9.358;2023-07-16T00:21:23;1.75;;;0.50;;
33786;SDS011;29742;51.540;9.358;2023-07-16T00:26:23;2.80;;;0.88;;
33786;SDS011;29742;51.540;9.358;2023-07-16T00:31:24;0.60;;;0.57;;
33786;SDS011;29742;51.540;9.358;2023-07-16T00:36:24;0.40;;;0.40;;
33786;SDS011;29742;51.540;9.358;2023-07-16T00:41:25;1.75;;;0.75;;
33786;SDS011;29742;51.540;9.358;2023-07-16T00:46:25;4.88;;;0.77;;
33786;SDS011;29742;51.540;9.358;2023-07-16T00:51:25;1.10;;;0.80;;
33786;SDS011;29742;51.540;9.358;2023-07-16T00:56:26;1.05;;;0.95;;
33786;SDS011;29742;51.540;9.358;2023-07-16T01:01:27;0.70;;;0.70;;
33786;SDS011;29742;51.540;9.358;2023-07-16T01:06:47;1.27;;;1.10;;
33786;SDS011;29742;51.540;9.358;2023-07-16T01:11:49;0.70;;;0.50;;
33786;SDS011;29742;51.540;9.358;2023-07-16T01:16:50;0.77;;;0.77;;
33786;SDS011;29742;51.540;9.358;2023-07-16T01:22:03;2.17;;;1.00;;
33786;SDS011;29742;51.540;9.358;2023-07-16T01:27:17;1.95;;;0.80;;
33786;SDS011;29742;51.540;9.358;2023-07-16T01:32:44;0.77;;;0.55;;
33786;SDS011;29742;51.540;9.358;2023-07-16T01:37:45;0.75;;;0.70;;
33786;SDS011;29742;51.540;9.358;2023-07-16T01:42:46;1.15;;;0.77;;
33786;SDS011;29742;51.540;9.358;2023-07-16T01:53:44;0.90;;;0.77;;
33786;SDS011;29742;51.540;9.358;2023-07-16T01:58:44;0.70;;;0.50;;
33786;SDS011;29742;51.540;9.358;2023-07-16T02:03:44;0.90;;;0.57;;
33786;SDS011;29742;51.540;9.358;2023-07-16T02:08:45;0.70;;;0.70;;
33786;SDS011;29742;51.540;9.358;2023-07-16T02:13:45;1.45;;;0.57;;
33786;SDS011;29742;51.540;9.358;2023-07-16T02:18:46;0.43;;;0.43;;
33786;SDS011;29742;51.540;9.358;2023-07-16T02:23:46;0.60;;;0.60;;
33786;SDS011;29742;51.540;9.358;2023-07-16T02:28:46;0.82;;;0.52;;
33786;SDS011;29742;51.540;9.358;2023-07-16T02:33:47;0.40;;;0.40;;
33786;SDS011;29742;51.540;9.358;2023-07-16T02:38:47;0.60;;;0.60;;
33786;SDS011;29742;51.540;9.358;2023-07-16T02:43:48;1.73;;;0.52;;
33786;SDS011;29742;51.540;9.358;2023-07-16T02:48:59;1.23;;;0.60;;
33786;SDS011;29742;51.540;9.358;2023-07-16T02:54:00;0.40;;;0.40;;
33786;SDS011;29742;51.540;9.358;2023-07-16T02:59:00;0.60;;;0.60;;
33786;SDS011;29742;51.540;9.358;2023-07-16T03:04:00;0.32;;;0.32;;
33786;SDS011;29742;51.540;9.358;2023-07-16T03:09:01;0.60;;;0.57;;
33786;SDS011;29742;51.540;9.358;2023-07-16T03:14:01;0.88;;;0.30;;
33786;SDS011;29742;51.540;9.358;2023-07-16T03:19:02;0.60;;;0.45;;
33786;SDS011;29742;51.540;9.358;2023-07-16T03:24:02;0.60;;;0.57;;
33786;SDS011;29742;51.540;9.358;2023-07-16T03:29:02;0.50;;;0.40;;
33786;SDS011;29742;51.540;9.358;2023-07-16T03:34:03;0.30;;;0.30;;
33786;SDS011;29742;51.540;9.358;2023-07-16T03:39:03;0.85;;;0.50;;
33786;SDS011;29742;51.540;9.358;2023-07-16T03:44:04;0.68;;;0.50;;
33786;SDS011;29742;51.540;9.358;2023-07-16T03:49:06;1.35;;;0.40;;
33786;SDS011;29742;51.540;9.358;2023-07-16T03:54:07;0.67;;;0.53;;
33786;SDS011;29742;51.540;9.358;2023-07-16T03:59:07;0.60;;;0.37;;
33786;SDS011;29742;51.540;9.358;2023-07-16T04:04:08;0.40;;;0.38;;
33786;SDS011;29742;51.540;9.358;2023-07-16T04:09:08;0.65;;;0.63;;
33786;SDS011;29742;51.540;9.358;2023-07-16T04:14:09;0.98;;;0.45;;
33786;SDS011;29742;51.540;9.358;2023-07-16T04:19:09;0.70;;;0.50;;
33786;SDS011;29742;51.540;9.358;2023-07-16T04:24:09;0.55;;;0.40;;
33786;SDS011;29742;51.540;9.358;2023-07-16T04:29:10;0.20;;;0.20;;
33786;SDS011;29742;51.540;9.358;2023-07-16T04:34:10;0.50;;;0.50;;
33786;SDS011;29742;51.540;9.358;2023-07-16T04:39:10;0.52;;;0.45;;
33786;SDS011;29742;51.540;9.358;2023-07-16T04:44:11;0.50;;;0.28;;
33786;SDS011;29742;51.540;9.358;2023-07-16T04:49:11;0.43;;;0.30;;
33786;SDS011;29742;51.540;9.358;2023-07-16T04:54:12;0.45;;;0.30;;
33786;SDS011;29742;51.540;9.358;2023-07-16T04:59:12;0.73;;;0.35;;
33786;SDS011;29742;51.540;9.358;2023-07-16T05:04:12;0.40;;;0.30;;
33786;SDS011;29742;51.540;9.358;2023-07-16T05:09:13;0.22;;;0.20;;
33786;SDS011;29742;51.540;9.358;2023-07-16T05:14:13;0.30;;;0.30;;
33786;SDS011;29742;51.540;9.358;2023-07-16T05:19:13;0.52;;;0.35;;
33786;SDS011;29742;51.540;9.358;2023-07-16T05:24:14;0.90;;;0.30;;
33786;SDS011;29742;51.540;9.358;2023-07-16T05:29:14;0.35;;;0.30;;
33786;SDS011;29742;51.540;9.358;2023-07-16T05:34:15;0.60;;;0.50;;
33786;SDS011;29742;51.540;9.358;2023-07-16T05:39:15;0.73;;;0.50;;
33786;SDS011;29742;51.540;9.358;2023-07-16T05:44:16;0.35;;;0.20;;
33786;SDS011;29742;51.540;9.358;2023-07-16T05:49:16;0.35;;;0.25;;
33786;SDS011;29742;51.540;9.358;2023-07-16T05:54:17;0.45;;;0.30;;
33786;SDS011;29742;51.540;9.358;2023-07-16T05:59:17;0.57;;;0.50;;
33786;SDS011;29742;51.540;9.358;2023-07-16T06:04:17;0.22;;;0.22;;
33786;SDS011;29742;51.540;9.358;2023-07-16T06:09:18;0.57;;;0.45;;
33786;SDS011;29742;51.540;9.358;2023-07-16T06:14:18;0.75;;;0.30;;
33786;SDS011;29742;51.540;9.358;2023-07-16T06:19:18;1.38;;;0.32;;
33786;SDS011;29742;51.540;9.358;2023-07-16T06:24:19;0.25;;;0.20;;
33786;SDS011;29742;51.540;9.358;2023-07-16T06:29:19;0.90;;;0.40;;
33786;SDS011;29742;51.540;9.358;2023-07-16T06:34:20;0.35;;;0.25;;
33786;SDS011;29742;51.540;9.358;2023-07-16T06:39:20;0.85;;;0.52;;
33786;SDS011;29742;51.540;9.358;2023-07-16T06:44:21;0.80;;;0.50;;
33786;SDS011;29742;51.540;9.358;2023-07-16T06:49:22;1.60;;;0.30;;
33786;SDS011;29742;51.540;9.358;2023-07-16T06:54:22;0.25;;;0.22;;
33786;SDS011;29742;51.540;9.358;2023-07-16T06:59:23;0.38;;;0.38;;
33786;SDS011;29742;51.540;9.358;2023-07-16T07:04:23;0.50;;;0.32;;
33786;SDS011;29742;51.540;9.358;2023-07-16T07:09:23;0.65;;;0.30;;
33786;SDS011;29742;51.540;9.358;2023-07-16T07:14:24;0.73;;;0.47;;
33786;SDS011;29742;51.540;9.358;2023-07-16T07:19:24;0.40;;;0.40;;
33786;SDS011;29742;51.540;9.358;2023-07-16T07:24:24;0.73;;;0.43;;
33786;SDS011;29742;51.540;9.358;2023-07-16T07:29:25;0.47;;;0.40;;
33786;SDS011;29742;51.540;9.358;2023-07-16T07:34:25;0.95;;;0.43;;
33786;SDS011;29742;51.540;9.358;2023-07-16T07:39:26;0.47;;;0.30;;
33786;SDS011;29742;51.540;9.358;2023-07-16T07:44:26;0.68;;;0.40;;
33786;SDS011;29742;51.540;9.358;2023-07-16T07:49:26;0.60;;;0.40;;
33786;SDS011;29742;51.540;9.358;2023-07-16T07:54:27;0.43;;;0.20;;
33786;SDS011;29742;51.540;9.358;2023-07-16T07:59:27;0.55;;;0.40;;
33786;SDS011;29742;51.540;9.358;2023-07-16T08:04:28;1.20;;;0.73;;
33786;SDS011;29742;51.540;9.358;2023-07-16T08:09:30;2.80;;;0.52;;
33786;SDS011;29742;51.540;9.358;2023-07-16T08:14:31;1.02;;;0.50;;
33786;SDS011;29742;51.540;9.358;2023-07-16T08:19:31;0.93;;;0.73;;
33786;SDS011;29742;51.540;9.358;2023-07-16T08:24:31;0.70;;;0.50;;
33786;SDS011;29742;51.540;9.358;2023-07-16T08:29:32;0.60;;;0.47;;
33786;SDS011;29742;51.540;9.358;2023-07-16T08:34:32;1.20;;;0.40;;
33786;SDS011;29742;51.540;9.358;2023-07-16T08:39:33;0.93;;;0.60;;
33786;SDS011;29742;51.540;9.358;2023-07-16T08:44:33;1.38;;;0.60;;
33786;SDS011;29742;51.540;9.358;2023-07-16T08:49:34;0.55;;;0.32;;
33786;SDS011;29742;51.540;9.358;2023-07-16T08:54:34;1.92;;;0.85;;
33786;SDS011;29742;51.540;9.358;2023-07-16T08:59:35;1.45;;;0.55;;
33786;SDS011;29742;51.540;9.358;2023-07-16T09:04:35;1.33;;;0.55;;
33786;SDS011;29742;51.540;9.358;2023-07-16T09:09:36;1.63;;;0.77;;
33786;SDS011;29742;51.540;9.358;2023-07-16T09:14:36;0.88;;;0.55;;
33786;SDS011;29742;51.540;9.358;2023-07-16T09:19:36;0.93;;;0.63;;
33786;SDS011;29742;51.540;9.358;2023-07-16T09:24:37;0.80;;;0.50;;
33786;SDS011;29742;51.540;9.358;2023-07-16T09:29:38;2.53;;;0.52;;
33786;SDS011;29742;51.540;9.358;2023-07-16T09:34:38;1.95;;;0.85;;
33786;SDS011;29742;51.540;9.358;2023-07-16T09:39:39;1.50;;;0.77;;
33786;SDS011;29742;51.540;9.358;2023-07-16T09:44:39;1.50;;;0.65;;
33786;SDS011;29742;51.540;9.358;2023-07-16T09:49:41;2.80;;;0.60;;
33786;SDS011;29742;51.540;9.358;2023-07-16T09:54:43;1.17;;;0.70;;
33786;SDS011;29742;51.540;9.358;2023-07-16T09:59:45;2.40;;;1.17;;
33786;SDS011;29742;51.540;9.358;2023-07-16T10:04:46;1.25;;;0.80;;
33786;SDS011;29742;51.540;9.358;2023-07-16T10:09:50;1.58;;;1.23;;
33786;SDS011;29742;51.540;9.358;2023-07-16T10:14:56;0.80;;;0.70;;
33786;SDS011;29742;51.540;9.358;2023-07-16T10:20:07;1.27;;;0.93;;
33786;SDS011;29742;51.540;9.358;2023-07-16T10:30:17;1.83;;;0.63;;
33786;SDS011;29742;51.540;9.358;2023-07-16T10:35:18;1.17;;;0.80;;
33786;SDS011;29742;51.540;9.358;2023-07-16T10:40:18;0.80;;;0.63;;
33786;SDS011;29742;51.540;9.358;2023-07-16T10:45:19;1.65;;;0.85;;
33786;SDS011;29742;51.540;9.358;2023-07-16T10:50:19;0.98;;;0.75;;
33786;SDS011;29742;51.540;9.358;2023-07-16T10:55:21;0.75;;;0.55;;
33786;SDS011;29742;51.540;9.358;2023-07-16T11:00:22;1.63;;;0.82;;
33786;SDS011;29742;51.540;9.358;2023-07-16T11:05:22;1.00;;;0.77;;
33786;SDS011;29742;51.540;9.358;2023-07-16T11:10:23;1.30;;;0.80;;
33786;SDS011;29742;51.540;9.358;2023-07-16T11:15:34;1.42;;;0.90;;
33786;SDS011;29742;51.540;9.358;2023-07-16T11:20:35;0.85;;;0.80;;
33786;SDS011;29742;51.540;9.358;2023-07-16T11:25:35;0.70;;;0.63;;
33786;SDS011;29742;51.540;9.358;2023-07-16T11:30:35;0.77;;;0.68;;
33786;SDS011;29742;51.540;9.358;2023-07-16T11:35:36;1.20;;;0.90;;
33786;SDS011;29742;51.540;9.358;2023-07-16T11:40:36;1.13;;;0.98;;
33786;SDS011;29742;51.540;9.358;2023-07-16T11:45:37;0.90;;;0.75;;
33786;SDS011;29742;51.540;9.358;2023-07-16T11:50:38;1.02;;;0.88;;
33786;SDS011;29742;51.540;9.358;2023-07-16T11:55:38;4.93;;;1.05;;
33786;SDS011;29742;51.540;9.358;2023-07-16T12:00:38;1.23;;;0.80;;
33786;SDS011;29742;51.540;9.358;2023-07-16T12:05:39;1.35;;;0.88;;
33786;SDS011;29742;51.540;9.358;2023-07-16T12:10:42;1.05;;;0.65;;
33786;SDS011;29742;51.540;9.358;2023-07-16T12:15:42;1.00;;;0.77;;
33786;SDS011;29742;51.540;9.358;2023-07-16T12:20:43;1.07;;;0.90;;
33786;SDS011;29742;51.540;9.358;2023-07-16T12:25:43;0.85;;;0.82;;
33786;SDS011;29742;51.540;9.358;2023-07-16T12:30:43;1.67;;;0.88;;
33786;SDS011;29742;51.540;9.358;2023-07-16T12:35:44;1.20;;;0.90;;
33786;SDS011;29742;51.540;9.358;2023-07-16T12:40:44;1.27;;;0.95;;
33786;SDS011;29742;51.540;9.358;2023-07-16T12:45:45;3.20;;;1.05;;
33786;SDS011;29742;51.540;9.358;2023-07-16T12:50:45;0.80;;;0.73;;
33786;SDS011;29742;51.540;9.358;2023-07-16T12:55:46;1.48;;;1.10;;
33786;SDS011;29742;51.540;9.358;2023-07-16T13:00:46;1.58;;;1.30;;
33786;SDS011;29742;51.540;9.358;2023-07-16T13:05:46;1.17;;;1.00;;
33786;SDS011;29742;51.540;9.358;2023-07-16T13:10:47;0.93;;;0.82;;
33786;SDS011;29742;51.540;9.358;2023-07-16T13:15:47;1.70;;;1.10;;
33786;SDS011;29742;51.540;9.358;2023-07-16T13:20:47;1.15;;;1.02;;
33786;SDS011;29742;51.540;9.358;2023-07-16T13:25:48;1.52;;;1.10;;
33786;SDS011;29742;51.540;9.358;2023-07-16T13:30:51;0.90;;;0.63;;
33786;SDS011;29742;51.540;9.358;2023-07-16T13:35:51;1.45;;;1.05;;
33786;SDS011;29742;51.540;9.358;2023-07-16T13:40:52;1.08;;;0.85;;
33786;SDS011;29742;51.540;9.358;2023-07-16T13:45:52;1.65;;;1.10;;
33786;SDS011;29742;51.540;9.358;2023-07-16T13:50:52;1.10;;;0.90;;
33786;SDS011;29742;51.540;9.358;2023-07-16T13:55:53;1.70;;;1.20;;
33786;SDS011;29742;51.540;9.358;2023-07-16T14:00:53;1.42;;;0.93;;
33786;SDS011;29742;51.540;9.358;2023-07-16T14:05:54;0.77;;;0.77;;
33786;SDS011;29742;51.540;9.358;2023-07-16T14:10:54;1.38;;;0.70;;
33786;SDS011;29742;51.540;9.358;2023-07-16T14:15:54;1.45;;;1.17;;
33786;SDS011;29742;51.540;9.358;2023-07-16T14:20:55;0.98;;;0.88;;
33786;SDS011;29742;51.540;9.358;2023-07-16T14:25:55;1.20;;;1.00;;
33786;SDS011;29742;51.540;9.358;2023-07-16T14:30:55;2.65;;;1.10;;
33786;SDS011;29742;51.540;9.358;2023-07-16T14:35:56;1.23;;;1.00;;
33786;SDS011;29742;51.540;9.358;2023-07-16T14:40:56;0.82;;;0.80;;
33786;SDS011;29742;51.540;9.358;2023-07-16T14:45:57;1.08;;;0.88;;
33786;SDS011;29742;51.540;9.358;2023-07-16T14:50:57;1.27;;;0.90;;
33786;SDS011;29742;51.540;9.358;2023-07-16T14:55:57;0.98;;;0.85;;
33786;SDS011;29742;51.540;9.358;2023-07-16T15:01:01;1.05;;;0.90;;
33786;SDS011;29742;51.540;9.358;2023-07-16T15:06:07;2.70;;;1.42;;
33786;SDS011;29742;51.540;9.358;2023-07-16T15:11:08;1.60;;;1.08;;
33786;SDS011;29742;51.540;9.358;2023-07-16T15:16:08;1.33;;;1.00;;
33786;SDS011;29742;51.540;9.358;2023-07-16T15:21:11;1.73;;;0.88;;
33786;SDS011;29742;51.540;9.358;2023-07-16T15:26:11;1.20;;;1.10;;
33786;SDS011;29742;51.540;9.358;2023-07-16T15:31:12;3.10;;;1.02;;
33786;SDS011;29742;51.540;9.358;2023-07-16T15:36:13;1.48;;;1.10;;
33786;SDS011;29742;51.540;9.358;2023-07-16T15:41:14;1.48;;;1.25;;
33786;SDS011;29742;51.540;9.358;2023-07-16T15:46:17;1.00;;;0.95;;
33786;SDS011;29742;51.540;9.358;2023-07-16T15:51:17;1.73;;;1.20;;
33786;SDS011;29742;51.540;9.358;2023-07-16T15:56:18;1.08;;;0.90;;
33786;SDS011;29742;51.540;9.358;2023-07-16T16:01:18;1.60;;;1.10;;
33786;SDS011;29742;51.540;9.358;2023-07-16T16:06:19;1.02;;;0.93;;
33786;SDS011;29742;51.540;9.358;2023-07-16T16:11:19;1.13;;;0.82;;
33786;SDS011;29742;51.540;9.358;2023-07-16T16:16:21;1.10;;;1.00;;
33786;SDS011;29742;51.540;9.358;2023-07-16T16:21:23;1.48;;;0.98;;
33786;SDS011;29742;51.540;9.358;2023-07-16T16:26:23;1.52;;;1.00;;
33786;SDS011;29742;51.540;9.358;2023-07-16T16:31:23;1.20;;;1.02;;
33786;SDS011;29742;51.540;9.358;2023-07-16T16:36:24;1.20;;;1.10;;
33786;SDS011;29742;51.540;9.358;2023-07-16T16:41:24;1.15;;;1.05;;
33786;SDS011;29742;51.540;9.358;2023-07-16T16:46:25;1.23;;;0.93;;
33786;SDS011;29742;51.540;9.358;2023-07-16T16:51:25;1.33;;;1.02;;
33786;SDS011;29742;51.540;9.358;2023-07-16T16:56:25;1.00;;;0.90;;
33786;SDS011;29742;51.540;9.358;2023-07-16T17:01:26;1.80;;;0.98;;
33786;SDS011;29742;51.540;9.358;2023-07-16T17:06:26;1.35;;;1.05;;
33786;SDS011;29742;51.540;9.358;2023-07-16T17:11:26;1.55;;;1.20;;
33786;SDS011;29742;51.540;9.358;2023-07-16T17:16:27;1.38;;;1.08;;
33786;SDS011;29742;51.540;9.358;2023-07-16T17:21:27;1.50;;;0.95;;
33786;SDS011;29742;51.540;9.358;2023-07-16T17:26:28;0.98;;;0.93;;
33786;SDS011;29742;51.540;9.358;2023-07-16T17:31:28;1.40;;;0.98;;
33786;SDS011;29742;51.540;9.358;2023-07-16T17:36:30;1.13;;;0.80;;
33786;SDS011;29742;51.540;9.358;2023-07-16T17:41:30;1.40;;;1.13;;
33786;SDS011;29742;51.540;9.358;2023-07-16T17:46:30;0.77;;;0.77;;
33786;SDS011;29742;51.540;9.358;2023-07-16T17:51:31;1.33;;;1.10;;
33786;SDS011;29742;51.540;9.358;2023-07-16T17:56:31;1.27;;;0.90;;
33786;SDS011;29742;51.540;9.358;2023-07-16T18:01:32;1.73;;;1.10;;
33786;SDS011;29742;51.540;9.358;2023-07-16T18:06:32;0.80;;;0.80;;
33786;SDS011;29742;51.540;9.358;2023-07-16T18:11:34;1.35;;;1.25;;
33786;SDS011;29742;51.540;9.358;2023-07-16T18:16:34;1.08;;;0.90;;
33786;SDS011;29742;51.540;9.358;2023-07-16T18:21:35;1.92;;;1.20;;
33786;SDS011;29742;51.540;9.358;2023-07-16T18:26:35;1.83;;;1.38;;
33786;SDS011;29742;51.540;9.358;2023-07-16T18:31:36;1.60;;;1.17;;
33786;SDS011;29742;51.540;9.358;2023-07-16T18:36:37;0.70;;;0.70;;
33786;SDS011;29742;51.540;9.358;2023-07-16T18:41:37;0.70;;;0.70;;
33786;SDS011;29742;51.540;9.358;2023-07-16T18:46:38;1.00;;;0.80;;
33786;SDS011;29742;51.540;9.358;2023-07-16T18:51:40;2.53;;;1.45;;
33786;SDS011;29742;51.540;9.358;2023-07-16T18:56:41;1.35;;;0.90;;
33786;SDS011;29742;51.540;9.358;2023-07-16T19:01:42;1.13;;;0.85;;
33786;SDS011;29742;51.540;9.358;2023-07-16T19:06:42;1.45;;;1.30;;
33786;SDS011;29742;51.540;9.358;2023-07-16T19:11:43;0.90;;;0.70;;
33786;SDS011;29742;51.540;9.358;2023-07-16T19:16:43;0.93;;;0.82;;
33786;SDS011;29742;51.540;9.358;2023-07-16T19:21:43;0.80;;;0.80;;
33786;SDS011;29742;51.540;9.358;2023-07-16T19:26:44;1.75;;;1.20;;
33786;SDS011;29742;51.540;9.358;2023-07-16T19:31:44;1.05;;;0.95;;
33786;SDS011;29742;51.540;9.358;2023-07-16T19:36:45;2.97;;;1.30;;
33786;SDS011;29742;51.540;9.358;2023-07-16T19:41:45;2.20;;;1.08;;
33786;SDS011;29742;51.540;9.358;2023-07-16T19:46:45;1.70;;;1.30;;
33786;SDS011;29742;51.540;9.358;2023-07-16T19:51:46;1.40;;;1.20;;
33786;SDS011;29742;51.540;9.358;2023-07-16T19:56:46;1.92;;;1.17;;
33786;SDS011;29742;51.540;9.358;2023-07-16T20:01:46;1.38;;;1.20;;
33786;SDS011;29742;51.540;9.358;2023-07-16T20:06:48;1.33;;;0.85;;
33786;SDS011;29742;51.540;9.358;2023-07-16T20:11:48;1.25;;;1.00;;
33786;SDS011;29742;51.540;9.358;2023-07-16T20:16:50;1.45;;;1.10;;
33786;SDS011;29742;51.540;9.358;2023-07-16T20:21:50;1.42;;;1.27;;
33786;SDS011;29742;51.540;9.358;2023-07-16T20:26:53;1.60;;;1.30;;
33786;SDS011;29742;51.540;9.358;2023-07-16T20:31:53;1.60;;;1.10;;
33786;SDS011;29742;51.540;9.358;2023-07-16T20:36:54;1.73;;;1.40;;
33786;SDS011;29742;51.540;9.358;2023-07-16T20:41:54;1.60;;;1.23;;
33786;SDS011;29742;51.540;9.358;2023-07-16T20:46:55;1.52;;;1.23;;
33786;SDS011;29742;51.540;9.358;2023-07-16T20:51:55;1.70;;;1.40;;
33786;SDS011;29742;51.540;9.358;2023-07-16T20:56:55;1.42;;;1.30;;
33786;SDS011;29742;51.540;9.358;2023-07-16T21:01:58;1.20;;;0.95;;
33786;SDS011;29742;51.540;9.358;2023-07-16T21:06:58;2.03;;;1.10;;
33786;SDS011;29742;51.540;9.358;2023-07-16T21:11:59;3.53;;;1.40;;
33786;SDS011;29742;51.540;9.358;2023-07-16T21:16:59;2.78;;;1.33;;
33786;SDS011;29742;51.540;9.358;2023-07-16T21:21:59;2.65;;;1.58;;
33786;SDS011;29742;51.540;9.358;2023-07-16T21:27:00;2.03;;;1.33;;
33786;SDS011;29742;51.540;9.358;2023-07-16T21:32:00;2.10;;;1.42;;
33786;SDS011;29742;51.540;9.358;2023-07-16T21:37:00;1.58;;;1.45;;
33786;SDS011;29742;51.540;9.358;2023-07-16T21:42:02;2.50;;;1.38;;
33786;SDS011;29742;51.540;9.358;2023-07-16T21:47:03;1.52;;;1.40;;
33786;SDS011;29742;51.540;9.358;2023-07-16T21:52:04;1.58;;;1.35;;
33786;SDS011;29742;51.540;9.358;2023-07-16T21:57:05;1.58;;;1.30;;
33786;SDS011;29742;51.540;9.358;2023-07-16T22:02:07;2.15;;;1.00;;
33786;SDS011;29742;51.540;9.358;2023-07-16T22:07:07;1.50;;;1.23;;
33786;SDS011;29742;51.540;9.358;2023-07-16T22:12:08;1.58;;;1.30;;
33786;SDS011;29742;51.540;9.358;2023-07-16T22:17:08;1.10;;;0.90;;
33786;SDS011;29742;51.540;9.358;2023-07-16T22:22:08;1.20;;;0.90;;
33786;SDS011;29742;51.540;9.358;2023-07-16T22:27:09;1.30;;;0.95;;
33786;SDS011;29742;51.540;9.358;2023-07-16T22:32:09;1.40;;;1.25;;
33786;SDS011;29742;51.540;9.358;2023-07-16T22:37:10;1.45;;;1.33;;
33786;SDS011;29742;51.540;9.358;2023-07-16T22:42:10;1.15;;;0.95;;
33786;SDS011;29742;51.540;9.358;2023-07-16T22:47:10;0.95;;;0.88;;
33786;SDS011;29742;51.540;9.358;2023-07-16T22:52:11;1.10;;;0.82;;
33786;SDS011;29742;51.540;9.358;2023-07-16T22:57:11;1.55;;;1.20;;
33786;SDS011;29742;51.540;9.358;2023-07-16T23:02:11;1.25;;;1.10;;
33786;SDS011;29742;51.540;9.358;2023-07-16T23:07:12;1.00;;;0.90;;
33786;SDS011;29742;51.540;9.358;2023-07-16T23:12:12;1.30;;;1.00;;
33786;SDS011;29742;51.540;9.358;2023-07-16T23:17:12;1.08;;;0.77;;
33786;SDS011;29742;51.540;9.358;2023-07-16T23:22:13;1.33;;;0.90;;
33786;SDS011;29742;51.540;9.358;2023-07-16T23:27:14;1.30;;;0.98;;
33786;SDS011;29742;51.540;9.358;2023-07-16T23:32:14;1.38;;;1.05;;
33786;SDS011;29742;51.540;9.358;2023-07-16T23:37:15;1.10;;;1.00;;
33786;SDS011;29742;51.540;9.358;2023-07-16T23:42:16;1.30;;;0.95;;
33786;SDS011;29742;51.540;9.358;2023-07-16T23:47:16;1.25;;;1.10;;
33786;SDS011;29742;51.540;9.358;2023-07-16T23:52:16;1.00;;;0.82;;
33786;SDS011;29742;51.540;9.358;2023-07-16T23:57:17;1.10;;;0.88;;
